Time;durP1;ratioP1;P1;durP2;ratioP2;P2;SDS_P1;SDS_P2;PMS_P1;PMS_P2;Temp;Humidity;BMP_temperature;BMP_pressure;BME280_temperature;BME280_humidity;BME280_pressure;Samples;Min_cycle;Max_cycle;Signal;HPM_P1;HPM_P2
2022/05/02 00:00:43;;;;;;;;;;;18.70;93.30;;;;;;4994634;28;19968;-59
2022/05/02 00:03:11;;;;;;;;;;;18.80;93.30;;;;;;4998613;28;19937;-59
2022/05/02 00:05:38;;;;;;;;;;;18.70;93.30;;;;;;5003103;28;19936;-55
2022/05/02 00:08:06;;;;;;;;;;;18.70;93.30;;;;;;5002742;28;19934;-58
2022/05/02 00:10:33;;;;;;;;;;;18.80;93.30;;;;;;5001637;28;20367;-55
2022/05/02 00:13:03;;;;;;;;;;;18.70;93.30;;;;;;4994614;28;19938;-56
2022/05/02 00:15:31;;;;;;;;;;;18.70;93.30;;;;;;5008988;28;20411;-59
2022/05/02 00:18:01;;;;;;;;;;;18.70;93.30;;;;;;4989253;28;20471;-59
2022/05/02 00:20:33;;;;;;;;;;;18.70;93.30;;;;;;4998511;28;20321;-58
2022/05/02 00:23:01;;;;;;;;;;;18.70;93.30;;;;;;5006620;28;19929;-58
2022/05/02 00:25:29;;;;;;;;;;;18.70;93.30;;;;;;4989488;28;19945;-58
2022/05/02 00:27:57;;;;;;;;;;;18.70;93.30;;;;;;5007632;28;19933;-57
2022/05/02 00:30:24;;;;;;;;;;;18.70;93.40;;;;;;4988667;28;19934;-57
2022/05/02 00:32:52;;;;;;;;;;;18.70;93.40;;;;;;4993733;28;20013;-58
2022/05/02 00:35:19;;;;;;;;;;;18.70;93.40;;;;;;4993641;28;19937;-58
2022/05/02 00:37:47;;;;;;;;;;;18.70;93.40;;;;;;4988158;28;19946;-58
2022/05/02 00:40:16;;;;;;;;;;;18.70;93.40;;;;;;4996523;28;20333;-56
2022/05/02 00:42:44;;;;;;;;;;;18.70;93.40;;;;;;4988426;28;20413;-57
2022/05/02 00:45:12;;;;;;;;;;;18.70;93.40;;;;;;5005418;28;19929;-58
2022/05/02 00:47:39;;;;;;;;;;;18.60;93.40;;;;;;4995220;28;19930;-57
2022/05/02 00:50:07;;;;;;;;;;;18.70;93.40;;;;;;4996107;28;19941;-59
2022/05/02 00:52:36;;;;;;;;;;;18.70;93.40;;;;;;5001271;28;19933;-59
2022/05/02 00:55:04;;;;;;;;;;;18.70;93.40;;;;;;4992753;28;19968;-59
2022/05/02 00:57:32;;;;;;;;;;;18.70;93.60;;;;;;5000468;28;20124;-57
2022/05/02 00:59:59;;;;;;;;;;;18.70;93.40;;;;;;5007518;28;19929;-55
2022/05/02 01:02:26;;;;;;;;;;;18.70;93.40;;;;;;4993525;28;20449;-57
2022/05/02 01:04:54;;;;;;;;;;;18.70;93.40;;;;;;5001822;28;20420;-58
2022/05/02 01:07:21;;;;;;;;;;;18.70;93.40;;;;;;5006457;28;19936;-58
2022/05/02 01:09:49;;;;;;;;;;;18.60;93.40;;;;;;5003981;28;19929;-58
2022/05/02 01:12:21;;;;;;;;;;;18.70;93.40;;;;;;4997792;28;20409;-60
2022/05/02 01:14:49;;;;;;;;;;;18.60;93.40;;;;;;4997147;28;19937;-59
2022/05/02 01:17:17;;;;;;;;;;;18.60;93.40;;;;;;4991650;28;20345;-58
2022/05/02 01:19:45;;;;;;;;;;;18.60;93.40;;;;;;4993155;28;19937;-60
2022/05/02 01:22:12;;;;;;;;;;;18.70;93.40;;;;;;5004646;28;19936;-58
2022/05/02 01:24:40;;;;;;;;;;;18.60;93.40;;;;;;4995267;28;20371;-58
2022/05/02 01:27:08;;;;;;;;;;;18.60;93.40;;;;;;4992865;28;19930;-59
2022/05/02 01:29:36;;;;;;;;;;;18.70;93.40;;;;;;5006456;28;19933;-58
2022/05/02 01:32:07;;;;;;;;;;;18.60;93.40;;;;;;4992343;28;19930;-59
2022/05/02 01:34:35;;;;;;;;;;;18.60;93.40;;;;;;5004796;28;19937;-59
2022/05/02 01:37:02;;;;;;;;;;;18.60;93.40;;;;;;4996828;28;19936;-58
2022/05/02 01:39:29;;;;;;;;;;;18.60;93.40;;;;;;5002190;28;19929;-56
2022/05/02 01:42:00;;;;;;;;;;;18.60;93.40;;;;;;4995215;28;19945;-58
2022/05/02 01:44:27;;;;;;;;;;;18.60;93.40;;;;;;4997394;28;19933;-59
2022/05/02 01:46:55;;;;;;;;;;;18.60;93.40;;;;;;5015735;28;19936;-56
2022/05/02 01:49:22;;;;;;;;;;;18.60;93.40;;;;;;5001474;28;20427;-57
2022/05/02 01:51:50;;;;;;;;;;;18.60;93.50;;;;;;4991227;28;19926;-59
2022/05/02 01:54:20;;;;;;;;;;;18.60;93.40;;;;;;5001104;28;19936;-57
2022/05/02 01:56:47;;;;;;;;;;;18.60;93.70;;;;;;4991571;28;19956;-59
2022/05/02 01:59:15;;;;;;;;;;;18.60;93.40;;;;;;5013568;28;19940;-55
2022/05/02 02:01:42;;;;;;;;;;;18.60;93.40;;;;;;5007171;28;20317;-58
2022/05/02 02:06:55;;;;;;;;;;;18.60;93.40;;;;;;5000224;28;19937;-57
2022/05/02 02:09:22;;;;;;;;;;;18.60;93.40;;;;;;5002356;28;19929;-58
2022/05/02 02:11:49;;;;;;;;;;;18.60;93.40;;;;;;5001721;28;20005;-55
2022/05/02 02:14:16;;;;;;;;;;;18.60;93.40;;;;;;5003759;28;19929;-58
2022/05/02 02:16:43;;;;;;;;;;;18.60;93.40;;;;;;5010722;28;19925;-57
2022/05/02 02:19:11;;;;;;;;;;;18.60;93.40;;;;;;4998588;28;19925;-58
2022/05/02 02:21:38;;;;;;;;;;;18.60;93.40;;;;;;4990273;28;19952;-58
2022/05/02 02:24:05;;;;;;;;;;;18.60;93.40;;;;;;4995584;28;19925;-58
2022/05/02 02:26:33;;;;;;;;;;;18.50;93.40;;;;;;4991485;28;19930;-59
2022/05/02 02:29:00;;;;;;;;;;;18.60;93.40;;;;;;4993990;28;19940;-56
2022/05/02 02:31:28;;;;;;;;;;;18.60;93.40;;;;;;4990145;28;19933;-57
2022/05/02 02:33:55;;;;;;;;;;;18.50;93.40;;;;;;5005380;28;19933;-57
2022/05/02 02:36:22;;;;;;;;;;;18.60;93.50;;;;;;4990302;28;19930;-57
2022/05/02 02:38:49;;;;;;;;;;;18.50;93.40;;;;;;4996348;28;20298;-56
2022/05/02 02:41:16;;;;;;;;;;;18.50;93.40;;;;;;5000298;28;20402;-56
2022/05/02 02:43:43;;;;;;;;;;;18.50;93.40;;;;;;4990740;28;20317;-57
2022/05/02 02:46:10;;;;;;;;;;;18.50;93.50;;;;;;5007405;28;19934;-59
2022/05/02 02:48:37;;;;;;;;;;;18.50;93.50;;;;;;5007739;28;19936;-57
2022/05/02 02:51:04;;;;;;;;;;;18.50;93.50;;;;;;4999668;28;20405;-58
2022/05/02 02:53:32;;;;;;;;;;;18.50;93.50;;;;;;4990669;28;19926;-57
2022/05/02 02:55:59;;;;;;;;;;;18.50;93.50;;;;;;4994952;28;19930;-59
2022/05/02 02:58:26;;;;;;;;;;;18.50;93.50;;;;;;5005689;28;19929;-59
2022/05/02 03:00:53;;;;;;;;;;;18.50;93.50;;;;;;5001373;28;19926;-58
2022/05/02 03:03:20;;;;;;;;;;;18.50;93.50;;;;;;5003968;28;20382;-58
2022/05/02 03:06:03;;;;;;;;;;;18.50;93.50;;;;;;5003261;28;20354;-58
2022/05/02 03:08:35;;;;;;;;;;;18.50;93.50;;;;;;4995671;28;20032;-57
2022/05/02 03:11:02;;;;;;;;;;;18.50;93.50;;;;;;5003803;28;19929;-56
2022/05/02 03:13:30;;;;;;;;;;;18.50;93.50;;;;;;5001637;28;20329;-55
2022/05/02 03:15:57;;;;;;;;;;;18.40;93.50;;;;;;4997007;28;19936;-57
2022/05/02 03:18:24;;;;;;;;;;;18.50;93.50;;;;;;5001776;28;20272;-55
2022/05/02 03:20:51;;;;;;;;;;;18.40;93.50;;;;;;4998007;28;19934;-59
2022/05/02 03:23:19;;;;;;;;;;;18.50;93.50;;;;;;5008031;28;19952;-58
2022/05/02 03:25:46;;;;;;;;;;;18.50;93.50;;;;;;4998055;28;20005;-57
2022/05/02 03:28:13;;;;;;;;;;;18.40;93.50;;;;;;4991548;28;20301;-57
2022/05/02 03:30:41;;;;;;;;;;;18.40;93.50;;;;;;4994489;28;19930;-57
2022/05/02 03:33:08;;;;;;;;;;;18.40;93.50;;;;;;5000234;28;19936;-55
2022/05/02 03:35:35;;;;;;;;;;;18.40;93.50;;;;;;5006583;28;20313;-57
2022/05/02 03:38:02;;;;;;;;;;;18.40;93.50;;;;;;4997735;28;20402;-59
2022/05/02 03:40:30;;;;;;;;;;;18.40;93.50;;;;;;5004949;28;20276;-58
2022/05/02 03:42:57;;;;;;;;;;;18.40;93.60;;;;;;4989217;28;20309;-57
2022/05/02 03:45:24;;;;;;;;;;;18.40;93.60;;;;;;4999648;28;19984;-57
2022/05/02 03:47:51;;;;;;;;;;;18.40;93.60;;;;;;4991089;28;19930;-57
2022/05/02 03:50:18;;;;;;;;;;;18.40;93.60;;;;;;5003450;28;19940;-55
2022/05/02 03:52:51;;;;;;;;;;;18.40;93.60;;;;;;4987425;28;19934;-56
2022/05/02 03:55:19;;;;;;;;;;;18.40;93.60;;;;;;4994716;28;19934;-58
2022/05/02 03:57:46;;;;;;;;;;;18.50;93.50;;;;;;5001071;28;19929;-57
2022/05/02 04:00:13;;;;;;;;;;;18.50;93.50;;;;;;5002765;28;19937;-59
2022/05/02 04:02:41;;;;;;;;;;;18.50;93.40;;;;;;5006694;28;19941;-58
2022/05/02 04:05:08;;;;;;;;;;;18.60;93.30;;;;;;5015202;28;20015;-59
2022/05/02 04:07:35;;;;;;;;;;;18.60;93.30;;;;;;5000521;28;19930;-59
2022/05/02 04:10:04;;;;;;;;;;;18.60;93.30;;;;;;5000118;28;19930;-58
2022/05/02 04:12:35;;;;;;;;;;;18.70;93.20;;;;;;5002920;28;19936;-59
2022/05/02 04:15:03;;;;;;;;;;;18.60;93.20;;;;;;4999053;28;20515;-58
2022/05/02 04:17:30;;;;;;;;;;;18.70;93.20;;;;;;4996175;28;19937;-57
2022/05/02 04:19:57;;;;;;;;;;;18.70;93.10;;;;;;4995065;28;20025;-57
2022/05/02 04:22:24;;;;;;;;;;;18.60;93.10;;;;;;5009039;28;19929;-59
2022/05/02 04:24:51;;;;;;;;;;;18.70;93.10;;;;;;4995885;28;19938;-58
2022/05/02 04:27:18;;;;;;;;;;;18.70;93.10;;;;;;5011038;28;20491;-59
2022/05/02 04:29:45;;;;;;;;;;;18.70;93.10;;;;;;5001937;28;19937;-56
2022/05/02 04:32:13;;;;;;;;;;;18.70;93.10;;;;;;5000759;28;19936;-58
2022/05/02 04:34:40;;;;;;;;;;;18.70;93.10;;;;;;4989590;28;20401;-58
2022/05/02 04:37:07;;;;;;;;;;;18.70;93.10;;;;;;4997636;28;19937;-58
2022/05/02 04:39:34;;;;;;;;;;;18.70;93.10;;;;;;5005064;28;19937;-56
2022/05/02 04:42:01;;;;;;;;;;;18.70;93.10;;;;;;5003633;28;19930;-58
2022/05/02 04:44:29;;;;;;;;;;;18.70;93.10;;;;;;4989831;28;19948;-55
2022/05/02 04:46:56;;;;;;;;;;;18.70;93.10;;;;;;5010049;28;19952;-59
2022/05/02 04:49:24;;;;;;;;;;;18.70;93.10;;;;;;5008903;28;20612;-59
2022/05/02 04:51:51;;;;;;;;;;;18.70;93.10;;;;;;5003872;28;19937;-58
2022/05/02 04:54:18;;;;;;;;;;;18.70;93.10;;;;;;4999421;28;19936;-59
2022/05/02 04:56:46;;;;;;;;;;;18.70;93.10;;;;;;5003878;28;19930;-58
2022/05/02 04:59:13;;;;;;;;;;;18.60;93.10;;;;;;5003275;28;20204;-58
2022/05/02 05:01:40;;;;;;;;;;;18.60;93.20;;;;;;5002148;28;19929;-58
2022/05/02 05:04:09;;;;;;;;;;;18.60;93.20;;;;;;4996590;28;19933;-57
2022/05/02 05:06:36;;;;;;;;;;;18.60;93.20;;;;;;4996472;28;19930;-60
2022/05/02 05:09:03;;;;;;;;;;;18.60;93.20;;;;;;4987962;28;20309;-56
2022/05/02 05:11:54;;;;;;;;;;;18.60;93.20;;;;;;4988455;28;19930;-59
2022/05/02 05:17:17;;;;;;;;;;;18.60;93.20;;;;;;5000396;28;19937;-55
2022/05/02 05:20:03;;;;;;;;;;;18.60;93.50;;;;;;4997608;28;19937;-59
2022/05/02 05:22:52;;;;;;;;;;;18.50;93.20;;;;;;4992670;28;19936;-58
2022/05/02 05:25:19;;;;;;;;;;;18.60;93.30;;;;;;4997488;28;19933;-60
2022/05/02 05:28:15;;;;;;;;;;;18.50;93.30;;;;;;4997431;28;19929;-55
2022/05/02 05:30:43;;;;;;;;;;;18.50;93.20;;;;;;4990637;28;19930;-57
2022/05/02 05:33:28;;;;;;;;;;;18.60;93.20;;;;;;5004932;28;19925;-58
2022/05/02 05:35:58;;;;;;;;;;;18.50;93.20;;;;;;4987971;28;19953;-58
2022/05/02 05:38:44;;;;;;;;;;;18.60;93.20;;;;;;4996328;28;19932;-60
2022/05/02 05:41:17;;;;;;;;;;;18.60;93.20;;;;;;4989735;28;19937;-60
2022/05/02 05:43:56;;;;;;;;;;;18.60;93.40;;;;;;4992125;28;20429;-59
2022/05/02 05:46:35;;;;;;;;;;;18.60;93.20;;;;;;5013353;28;19956;-57
2022/05/02 05:49:08;;;;;;;;;;;18.60;93.20;;;;;;5004233;28;19994;-58
2022/05/02 05:51:38;;;;;;;;;;;18.60;93.20;;;;;;5005615;28;19936;-58
2022/05/02 05:54:08;;;;;;;;;;;18.60;93.20;;;;;;4994505;28;19929;-58
2022/05/02 05:56:50;;;;;;;;;;;18.60;93.30;;;;;;4987262;28;19985;-57
2022/05/02 05:59:17;;;;;;;;;;;18.60;93.30;;;;;;5014084;28;20029;-59
2022/05/02 06:01:56;;;;;;;;;;;18.50;93.30;;;;;;5004134;28;20000;-57
2022/05/02 06:04:25;;;;;;;;;;;18.50;93.30;;;;;;4997415;28;19937;-59
2022/05/02 06:06:53;;;;;;;;;;;18.60;93.30;;;;;;5005262;28;20325;-58
2022/05/02 06:09:21;;;;;;;;;;;18.60;93.30;;;;;;5006072;28;19929;-58
2022/05/02 06:11:49;;;;;;;;;;;18.50;93.30;;;;;;5003510;28;20590;-57
2022/05/02 06:14:17;;;;;;;;;;;18.60;93.30;;;;;;4988012;28;19937;-58
2022/05/02 06:19:31;;;;;;;;;;;18.50;93.30;;;;;;4994631;28;20325;-60
2022/05/02 06:22:00;;;;;;;;;;;18.50;93.40;;;;;;4995045;28;19926;-58
2022/05/02 06:24:31;;;;;;;;;;;18.50;93.40;;;;;;5004585;28;20384;-58
2022/05/02 06:26:59;;;;;;;;;;;18.50;93.40;;;;;;4999868;28;19936;-54
2022/05/02 06:29:26;;;;;;;;;;;18.50;93.40;;;;;;5008907;28;19937;-57
2022/05/02 06:31:54;;;;;;;;;;;18.50;93.40;;;;;;5009944;28;19941;-57
2022/05/02 06:34:23;;;;;;;;;;;18.50;93.40;;;;;;5008284;28;19925;-59
2022/05/02 06:37:08;;;;;;;;;;;18.50;93.40;;;;;;4998998;28;19925;-58
2022/05/02 06:39:41;;;;;;;;;;;18.50;93.40;;;;;;4993029;28;19926;-58
2022/05/02 06:42:08;;;;;;;;;;;18.60;93.40;;;;;;4991046;28;20036;-58
2022/05/02 06:44:54;;;;;;;;;;;18.50;93.40;;;;;;4997800;28;19933;-55
2022/05/02 06:47:24;;;;;;;;;;;18.60;93.40;;;;;;4994432;28;19952;-59
2022/05/02 06:49:55;;;;;;;;;;;18.60;93.40;;;;;;4995307;28;20264;-59
2022/05/02 06:52:32;;;;;;;;;;;18.60;93.40;;;;;;4999861;28;19925;-58
2022/05/02 06:54:59;;;;;;;;;;;18.60;93.40;;;;;;5006238;28;19934;-60
2022/05/02 06:57:30;;;;;;;;;;;18.60;93.40;;;;;;5002363;28;19956;-57
2022/05/02 07:00:01;;;;;;;;;;;18.60;93.40;;;;;;4992097;28;20322;-56
2022/05/02 07:02:38;;;;;;;;;;;18.60;93.40;;;;;;5004651;28;20315;-58
2022/05/02 07:05:10;;;;;;;;;;;18.60;93.40;;;;;;4992655;28;19930;-58
2022/05/02 07:07:48;;;;;;;;;;;18.60;93.50;;;;;;5011392;28;20032;-58
2022/05/02 07:10:22;;;;;;;;;;;18.60;93.50;;;;;;5006602;28;19929;-59
2022/05/02 07:12:56;;;;;;;;;;;18.60;93.50;;;;;;4990556;28;19930;-59
2022/05/02 07:15:27;;;;;;;;;;;18.70;93.50;;;;;;5000352;28;19925;-56
2022/05/02 07:18:05;;;;;;;;;;;18.70;93.50;;;;;;4992173;28;19930;-60
2022/05/02 07:20:48;;;;;;;;;;;18.60;93.50;;;;;;5010428;28;20285;-60
2022/05/02 07:23:21;;;;;;;;;;;18.70;93.60;;;;;;4991925;28;20394;-58
2022/05/02 07:26:01;;;;;;;;;;;18.70;93.60;;;;;;5004257;28;19929;-60
2022/05/02 07:28:44;;;;;;;;;;;18.70;93.60;;;;;;4989777;28;20401;-59
2022/05/02 07:31:21;;;;;;;;;;;18.70;93.60;;;;;;4994612;28;20624;-57
2022/05/02 07:33:53;;;;;;;;;;;18.70;93.60;;;;;;4989636;28;20425;-58
2022/05/02 07:36:22;;;;;;;;;;;18.70;93.70;;;;;;5005505;28;19929;-58
2022/05/02 07:38:53;;;;;;;;;;;18.70;93.70;;;;;;4998019;28;20397;-59
2022/05/02 07:41:22;;;;;;;;;;;18.70;93.70;;;;;;4999013;28;19933;-58
2022/05/02 07:43:52;;;;;;;;;;;18.80;93.70;;;;;;4992429;28;19929;-60
2022/05/02 07:46:25;;;;;;;;;;;18.70;93.70;;;;;;5006487;28;19936;-59
2022/05/02 07:48:54;;;;;;;;;;;18.80;93.70;;;;;;4999610;28;19952;-58
2022/05/02 07:51:21;;;;;;;;;;;18.80;93.70;;;;;;4990735;28;19941;-59
2022/05/02 07:53:49;;;;;;;;;;;18.80;93.80;;;;;;4989760;28;19930;-58
2022/05/02 07:56:17;;;;;;;;;;;18.80;93.80;;;;;;4994528;28;19933;-58
2022/05/02 07:58:46;;;;;;;;;;;18.80;93.80;;;;;;4994703;28;20382;-59
2022/05/02 08:01:22;;;;;;;;;;;18.80;93.80;;;;;;5005646;28;19929;-57
2022/05/02 08:03:50;;;;;;;;;;;18.80;93.80;;;;;;4989841;28;19933;-60
2022/05/02 08:06:18;;;;;;;;;;;18.80;93.80;;;;;;4989724;28;20431;-55
2022/05/02 08:08:57;;;;;;;;;;;18.80;93.80;;;;;;4989641;28;19936;-58
2022/05/02 08:11:29;;;;;;;;;;;18.90;93.80;;;;;;5004511;28;20285;-61
2022/05/02 08:14:15;;;;;;;;;;;18.80;93.90;;;;;;5013943;28;19936;-60
2022/05/02 08:17:03;;;;;;;;;;;18.80;93.90;;;;;;5001458;28;20404;-60
2022/05/02 08:20:06;;;;;;;;;;;18.80;93.90;;;;;;5001746;28;20013;-59
2022/05/02 08:29:08;;;;;;;;;;;18.80;93.90;;;;;;5006588;28;19936;-59
2022/05/02 08:31:51;;;;;;;;;;;18.80;94.00;;;;;;5006006;28;19937;-59
2022/05/02 08:34:27;;;;;;;;;;;18.80;94.00;;;;;;4989263;28;19937;-59
2022/05/02 08:36:59;;;;;;;;;;;18.70;94.00;;;;;;4989072;28;19930;-60
2022/05/02 08:39:33;;;;;;;;;;;18.70;94.00;;;;;;4989860;28;20697;-59
2022/05/02 08:42:11;;;;;;;;;;;18.70;94.00;;;;;;5006507;28;19930;-58
2022/05/02 08:45:09;;;;;;;;;;;18.70;93.90;;;;;;4993999;28;19934;-57
2022/05/02 08:47:36;;;;;;;;;;;18.80;93.90;;;;;;4998378;28;19937;-58
2022/05/02 08:50:15;;;;;;;;;;;18.80;94.00;;;;;;4993677;28;20391;-59
2022/05/02 08:52:54;;;;;;;;;;;18.80;94.00;;;;;;5002074;28;19938;-58
2022/05/02 08:55:39;;;;;;;;;;;18.80;94.00;;;;;;4997588;28;20332;-56
2022/05/02 08:58:25;;;;;;;;;;;18.80;94.00;;;;;;4992044;28;19937;-60
2022/05/02 09:01:11;;;;;;;;;;;18.80;94.00;;;;;;4995742;28;19941;-59
2022/05/02 09:03:57;;;;;;;;;;;18.80;94.00;;;;;;4998738;28;20400;-60
2022/05/02 09:06:42;;;;;;;;;;;18.80;94.00;;;;;;4995992;28;19937;-58
2022/05/02 09:09:28;;;;;;;;;;;18.80;94.00;;;;;;4988357;28;20305;-57
2022/05/02 09:12:13;;;;;;;;;;;18.80;94.00;;;;;;4987331;28;20409;-61
2022/05/02 09:14:58;;;;;;;;;;;18.80;94.00;;;;;;4994044;28;20321;-56
2022/05/02 09:17:43;;;;;;;;;;;18.80;94.00;;;;;;4998433;28;19985;-59
2022/05/02 09:20:22;;;;;;;;;;;18.80;94.00;;;;;;4992526;28;19941;-59
2022/05/02 09:22:50;;;;;;;;;;;18.80;94.00;;;;;;4997940;28;20293;-60
2022/05/02 09:25:43;;;;;;;;;;;18.80;94.00;;;;;;4995108;28;20428;-57
2022/05/02 09:28:18;;;;;;;;;;;18.80;94.00;;;;;;4991714;28;19929;-59
2022/05/02 09:30:45;;;;;;;;;;;18.80;94.00;;;;;;4989400;28;19929;-60
2022/05/02 09:33:31;;;;;;;;;;;18.80;94.00;;;;;;4987736;28;20374;-59
2022/05/02 09:36:18;;;;;;;;;;;18.80;94.00;;;;;;4987725;28;20428;-57
2022/05/02 09:38:50;;;;;;;;;;;18.80;94.00;;;;;;4996642;28;19930;-54
2022/05/02 09:41:28;;;;;;;;;;;18.80;94.10;;;;;;4992571;28;20010;-59
2022/05/02 09:49:58;;;;;;;;;;;18.80;94.10;;;;;;4997281;28;19931;-60
2022/05/02 09:52:32;;;;;;;;;;;18.80;94.10;;;;;;4994890;28;20321;-60
2022/05/02 09:57:48;;;;;;;;;;;18.80;94.10;;;;;;4992004;28;19941;-57
2022/05/02 10:03:14;;;;;;;;;;;18.90;94.10;;;;;;4990690;28;20542;-61
2022/05/02 10:06:01;;;;;;;;;;;18.80;94.10;;;;;;5002337;28;19944;-58
2022/05/02 10:08:46;;;;;;;;;;;18.80;94.10;;;;;;4992430;28;20286;-57
2022/05/02 10:11:25;;;;;;;;;;;18.90;94.10;;;;;;4990552;28;20468;-59
2022/05/02 10:14:05;;;;;;;;;;;18.80;94.10;;;;;;4994200;28;19972;-55
2022/05/02 10:16:35;;;;;;;;;;;18.80;94.10;;;;;;4996804;28;19930;-54
2022/05/02 10:19:20;;;;;;;;;;;18.90;94.20;;;;;;4996163;28;20320;-56
2022/05/02 10:21:53;;;;;;;;;;;18.80;94.10;;;;;;5009835;28;20353;-56
2022/05/02 10:24:29;;;;;;;;;;;18.90;94.10;;;;;;5003572;28;19932;-55
2022/05/02 10:27:02;;;;;;;;;;;18.90;94.10;;;;;;4991430;28;19930;-56
2022/05/02 10:29:42;;;;;;;;;;;18.90;94.10;;;;;;5004053;28;19949;-58
2022/05/02 10:32:39;;;;;;;;;;;18.90;94.10;;;;;;5006149;28;19930;-61
2022/05/02 10:35:09;;;;;;;;;;;18.90;94.10;;;;;;5000988;28;19930;-58
2022/05/02 10:37:38;;;;;;;;;;;18.90;94.10;;;;;;4991794;28;19929;-59
2022/05/02 10:40:13;;;;;;;;;;;18.90;94.10;;;;;;5005678;28;20421;-59
2022/05/02 10:42:45;;;;;;;;;;;18.90;94.10;;;;;;4999211;28;20344;-60
2022/05/02 10:45:14;;;;;;;;;;;18.90;94.10;;;;;;4999567;28;19941;-59
2022/05/02 10:47:47;;;;;;;;;;;18.90;94.10;;;;;;5009872;28;19929;-60
2022/05/02 10:50:20;;;;;;;;;;;18.90;94.10;;;;;;4998221;28;19936;-59
2022/05/02 10:52:47;;;;;;;;;;;18.90;94.10;;;;;;5006337;28;19933;-57
2022/05/02 10:55:37;;;;;;;;;;;19.00;94.10;;;;;;4997783;28;19930;-57
2022/05/02 10:58:05;;;;;;;;;;;18.90;94.10;;;;;;5016944;28;19929;-57
2022/05/02 11:00:33;;;;;;;;;;;18.90;94.10;;;;;;5046186;28;19925;-57
2022/05/02 11:03:09;;;;;;;;;;;18.90;94.10;;;;;;4998390;28;19929;-58
2022/05/02 11:05:54;;;;;;;;;;;18.90;94.10;;;;;;4996390;28;19930;-58
2022/05/02 11:08:33;;;;;;;;;;;19.00;94.10;;;;;;4992548;28;19937;-62
2022/05/02 11:11:05;;;;;;;;;;;18.90;94.10;;;;;;4995324;28;19937;-57
2022/05/02 11:13:35;;;;;;;;;;;18.90;94.10;;;;;;4990665;28;19926;-55
2022/05/02 11:16:02;;;;;;;;;;;18.90;94.10;;;;;;5000205;28;19930;-56
2022/05/02 11:21:28;;;;;;;;;;;19.00;94.10;;;;;;4990679;28;19936;-60
2022/05/02 11:24:07;;;;;;;;;;;18.90;94.10;;;;;;5008283;28;19937;-59
2022/05/02 11:26:48;;;;;;;;;;;19.00;94.10;;;;;;5001279;28;19930;-61
2022/05/02 11:29:24;;;;;;;;;;;18.90;94.10;;;;;;5003055;28;19930;-59
2022/05/02 11:31:51;;;;;;;;;;;19.00;94.10;;;;;;5005405;28;19934;-58
2022/05/02 11:34:36;;;;;;;;;;;19.00;94.10;;;;;;4995328;28;20381;-58
2022/05/02 11:37:07;;;;;;;;;;;19.00;94.10;;;;;;4992506;28;19929;-59
2022/05/02 11:39:34;;;;;;;;;;;19.00;94.10;;;;;;4990422;28;19930;-61
2022/05/02 11:42:13;;;;;;;;;;;19.00;94.10;;;;;;4992094;28;19926;-58
2022/05/02 11:44:59;;;;;;;;;;;19.00;94.10;;;;;;4991419;28;20418;-57
2022/05/02 11:47:34;;;;;;;;;;;19.00;94.00;;;;;;4990794;28;19926;-59
2022/05/02 11:50:09;;;;;;;;;;;19.00;94.00;;;;;;4995828;28;19940;-58
2022/05/02 11:52:43;;;;;;;;;;;19.00;94.00;;;;;;5000529;28;19945;-56
2022/05/02 11:55:10;;;;;;;;;;;19.00;94.00;;;;;;5006989;28;19937;-57
2022/05/02 11:57:39;;;;;;;;;;;19.00;94.30;;;;;;4998523;28;19929;-58
2022/05/02 12:00:11;;;;;;;;;;;19.00;94.00;;;;;;5013113;28;19929;-61
2022/05/02 12:02:45;;;;;;;;;;;19.10;94.00;;;;;;4993435;28;19937;-59
2022/05/02 12:05:31;;;;;;;;;;;19.10;94.00;;;;;;5006253;28;19929;-60
2022/05/02 12:08:00;;;;;;;;;;;19.10;94.00;;;;;;4990452;28;19925;-60
2022/05/02 12:10:32;;;;;;;;;;;19.10;93.90;;;;;;5008853;28;19949;-61
2022/05/02 12:13:00;;;;;;;;;;;19.10;94.00;;;;;;4988075;28;20472;-58
2022/05/02 12:15:28;;;;;;;;;;;19.00;93.90;;;;;;5003708;28;19929;-57
2022/05/02 12:17:57;;;;;;;;;;;19.10;94.00;;;;;;5007815;28;19929;-57
2022/05/02 12:20:28;;;;;;;;;;;19.00;94.00;;;;;;4999615;28;19930;-62
2022/05/02 12:22:59;;;;;;;;;;;19.10;94.00;;;;;;4989634;28;20317;-58
2022/05/02 12:25:28;;;;;;;;;;;19.10;94.00;;;;;;5000360;28;19930;-58
2022/05/02 12:27:56;;;;;;;;;;;19.10;94.00;;;;;;5006936;28;19926;-58
2022/05/02 12:30:25;;;;;;;;;;;19.10;94.00;;;;;;5003846;28;19930;-58
2022/05/02 12:32:53;;;;;;;;;;;19.10;94.00;;;;;;4992558;28;19934;-59
2022/05/02 12:35:21;;;;;;;;;;;19.10;94.00;;;;;;4999671;28;19929;-56
2022/05/02 12:37:50;;;;;;;;;;;19.10;94.10;;;;;;4989754;28;19996;-57
2022/05/02 12:40:22;;;;;;;;;;;19.00;94.00;;;;;;4990645;28;19937;-58
2022/05/02 12:42:50;;;;;;;;;;;19.10;94.10;;;;;;4997632;28;20328;-58
2022/05/02 12:45:18;;;;;;;;;;;19.10;94.00;;;;;;4998837;28;19925;-56
2022/05/02 12:47:49;;;;;;;;;;;19.10;94.00;;;;;;4994527;28;19929;-57
2022/05/02 12:50:18;;;;;;;;;;;19.20;94.00;;;;;;4995170;28;19937;-55
2022/05/02 12:52:46;;;;;;;;;;;19.10;94.00;;;;;;5001299;28;19929;-57
2022/05/02 12:55:14;;;;;;;;;;;19.20;94.00;;;;;;4997200;28;19930;-60
2022/05/02 13:00:36;;;;;;;;;;;19.20;94.00;;;;;;4991940;28;19929;-57
2022/05/02 13:03:10;;;;;;;;;;;19.20;93.90;;;;;;4989999;28;19941;-56
2022/05/02 13:05:41;;;;;;;;;;;19.20;93.90;;;;;;5007781;28;19929;-58
2022/05/02 13:08:09;;;;;;;;;;;19.30;94.00;;;;;;4992007;28;19933;-57
2022/05/02 13:10:39;;;;;;;;;;;19.30;93.90;;;;;;5002656;28;20319;-58
2022/05/02 13:13:10;;;;;;;;;;;19.30;93.90;;;;;;4989611;28;19930;-58
2022/05/02 13:15:50;;;;;;;;;;;19.30;93.80;;;;;;5007271;28;19940;-58
2022/05/02 13:18:22;;;;;;;;;;;19.40;93.90;;;;;;4992635;28;20001;-58
2022/05/02 13:21:15;;;;;;;;;;;19.30;93.90;;;;;;5003666;28;19941;-60
2022/05/02 13:23:44;;;;;;;;;;;19.30;93.90;;;;;;4985679;28;20307;-58
2022/05/02 13:26:14;;;;;;;;;;;19.30;93.90;;;;;;4996063;28;19926;-57
2022/05/02 13:28:53;;;;;;;;;;;19.30;93.90;;;;;;5000292;28;20236;-59
2022/05/02 13:31:39;;;;;;;;;;;19.30;94.00;;;;;;4993341;28;19930;-59
2022/05/02 13:34:12;;;;;;;;;;;19.30;94.00;;;;;;4997095;28;19936;-59
2022/05/02 13:36:41;;;;;;;;;;;19.30;94.00;;;;;;5010483;28;20032;-59
2022/05/02 13:39:19;;;;;;;;;;;19.30;94.00;;;;;;5002735;28;19929;-59
2022/05/02 13:41:57;;;;;;;;;;;19.40;94.00;;;;;;5002537;28;19952;-58
2022/05/02 13:44:31;;;;;;;;;;;19.40;93.90;;;;;;4996908;28;19934;-57
2022/05/02 13:47:06;;;;;;;;;;;19.40;93.90;;;;;;4997360;28;20333;-59
2022/05/02 13:49:52;;;;;;;;;;;19.40;93.90;;;;;;4991720;28;20326;-60
2022/05/02 13:52:27;;;;;;;;;;;19.40;93.90;;;;;;5008194;28;19936;-59
2022/05/02 13:55:36;;;;;;;;;;;19.40;93.80;;;;;;4997315;28;19933;-57
2022/05/02 13:58:26;;;;;;;;;;;19.40;93.80;;;;;;5009086;28;20000;-59
2022/05/02 14:03:40;;;;;;;;;;;19.40;93.90;;;;;;4991608;28;19930;-59
2022/05/02 14:06:12;;;;;;;;;;;19.40;94.00;;;;;;4997687;28;19930;-59
2022/05/02 14:08:42;;;;;;;;;;;19.40;94.00;;;;;;4991286;28;19930;-60
2022/05/02 14:11:19;;;;;;;;;;;19.40;94.00;;;;;;4993579;28;20390;-58
2022/05/02 14:14:03;;;;;;;;;;;19.40;94.00;;;;;;5007904;28;19936;-61
2022/05/02 14:16:31;;;;;;;;;;;19.30;94.00;;;;;;5000127;28;19937;-56
2022/05/02 14:18:58;;;;;;;;;;;19.40;94.00;;;;;;4991318;28;20441;-58
2022/05/02 14:21:26;;;;;;;;;;;19.40;94.00;;;;;;4991715;28;19925;-59
2022/05/02 14:23:59;;;;;;;;;;;19.40;94.00;;;;;;4990996;28;19941;-55
2022/05/02 14:26:27;;;;;;;;;;;19.40;93.90;;;;;;5003932;28;19934;-58
2022/05/02 14:28:55;;;;;;;;;;;19.50;93.80;;;;;;5000981;28;20336;-59
2022/05/02 14:31:33;;;;;;;;;;;19.60;93.70;;;;;;4997942;28;20304;-60
2022/05/02 14:34:07;;;;;;;;;;;19.60;93.60;;;;;;5006806;28;19935;-59
2022/05/02 14:36:41;;;;;;;;;;;19.60;93.60;;;;;;5008516;28;20017;-59
2022/05/02 14:39:11;;;;;;;;;;;19.60;93.60;;;;;;5007511;28;19929;-57
2022/05/02 14:41:39;;;;;;;;;;;19.60;93.70;;;;;;4997097;28;19933;-60
2022/05/02 14:44:12;;;;;;;;;;;19.60;93.70;;;;;;4994402;28;20475;-55
2022/05/02 14:46:43;;;;;;;;;;;19.60;93.70;;;;;;4997057;28;20417;-59
2022/05/02 14:49:11;;;;;;;;;;;19.50;93.80;;;;;;5000891;28;20337;-60
2022/05/02 14:51:42;;;;;;;;;;;19.50;93.80;;;;;;4997331;28;19940;-59
2022/05/02 14:54:11;;;;;;;;;;;19.50;93.80;;;;;;4998179;28;19930;-57
2022/05/02 14:56:40;;;;;;;;;;;19.50;93.80;;;;;;4992034;28;19929;-59
2022/05/02 14:59:10;;;;;;;;;;;19.50;93.80;;;;;;5011803;28;19925;-59
2022/05/02 15:01:39;;;;;;;;;;;19.50;93.80;;;;;;5007962;28;19932;-61
2022/05/02 15:04:10;;;;;;;;;;;19.60;93.80;;;;;;4994174;28;19929;-57
2022/05/02 15:06:37;;;;;;;;;;;19.60;93.80;;;;;;5008310;28;20289;-58
2022/05/02 15:09:13;;;;;;;;;;;19.60;93.70;;;;;;4996951;28;19934;-61
2022/05/02 15:11:40;;;;;;;;;;;19.60;93.70;;;;;;5008109;28;19925;-60
2022/05/02 15:14:15;;;;;;;;;;;19.70;93.90;;;;;;4993520;28;19929;-59
2022/05/02 15:17:01;;;;;;;;;;;19.80;93.60;;;;;;5003677;28;20428;-61
2022/05/02 15:19:48;;;;;;;;;;;19.80;93.40;;;;;;4999943;28;19930;-59